Time,TemperatureF,DewpointF,PressureIn,WindDirection,WindDirectionDegrees,WindSpeedMPH,WindSpeedGustMPH,Humidity,HourlyPrecipIn,Conditions,Clouds,dailyrainin,SoftwareType,DateUTC
2013-10-02 00:08:00,56.7,28.0,30.29,SSE,168,0.0,6.0,33,0.00,,,0.00,weatherlink.com 1.10,2013-10-02 06:08:00,
2013-10-02 00:23:00,56.2,28.0,30.30,SSE,168,0.0,1.0,34,0.00,,,0.00,weatherlink.com 1.10,2013-10-02 06:23:00,
2013-10-02 00:38:00,54.5,28.0,30.30,SSE,168,0.0,0.0,36,0.00,,,0.00,weatherlink.com 1.10,2013-10-02 06:38:00,
2013-10-02 00:53:00,53.3,27.0,30.30,SSE,168,0.0,5.0,37,0.00,,,0.00,weatherlink.com 1.10,2013-10-02 06:53:00,
2013-10-02 01:08:00,53.2,27.0,30.30,SSE,168,0.0,1.0,37,0.00,,,0.00,weatherlink.com 1.10,2013-10-02 07:08:00,
2013-10-02 01:23:00,52.0,27.0,30.31,SSE,168,0.0,5.0,38,0.00,,,0.00,weatherlink.com 1.10,2013-10-02 07:23:00,
2013-10-02 01:38:00,52.7,26.0,30.31,SSE,168,0.0,5.0,35,0.00,,,0.00,weatherlink.com 1.10,2013-10-02 07:38:00,
2013-10-02 01:53:00,52.7,26.0,30.31,SSE,168,0.0,1.0,36,0.00,,,0.00,weatherlink.com 1.10,2013-10-02 07:53:00,
2013-10-02 02:08:00,50.6,26.0,30.31,SSE,168,2.0,2.0,39,0.00,,,0.00,weatherlink.com 1.10,2013-10-02 08:08:00,
2013-10-02 02:23:00,49.5,26.0,30.31,SSE,168,0.0,1.0,40,0.00,,,0.00,weatherlink.com 1.10,2013-10-02 08:23:00,
2013-10-02 02:38:00,48.2,26.0,30.31,SSE,168,0.0,0.0,42,0.00,,,0.00,weatherlink.com 1.10,2013-10-02 08:38:00,
2013-10-02 02:53:00,47.4,26.0,30.31,SSE,168,0.0,0.0,43,0.00,,,0.00,weatherlink.com 1.10,2013-10-02 08:53:00,
2013-10-02 03:08:00,46.7,26.0,30.31,SSE,168,1.0,3.0,45,0.00,,,0.00,weatherlink.com 1.10,2013-10-02 09:08:00,
2013-10-02 03:23:00,47.1,26.0,30.31,SSE,168,0.0,1.0,44,0.00,,,0.00,weatherlink.com 1.10,2013-10-02 09:23:00,
2013-10-02 03:38:00,47.1,25.0,30.30,SSE,168,0.0,3.0,43,0.00,,,0.00,weatherlink.com 1.10,2013-10-02 09:38:00,
2013-10-02 03:53:00,46.9,25.0,30.30,SSE,168,0.0,1.0,42,0.00,,,0.00,weatherlink.com 1.10,2013-10-02 09:53:00,
2013-10-02 04:08:00,46.9,26.0,30.30,SSE,168,0.0,5.0,44,0.00,,,0.00,weatherlink.com 1.10,2013-10-02 10:08:00,
2013-10-02 04:23:00,46.7,25.0,30.30,SSE,168,0.0,3.0,43,0.00,,,0.00,weatherlink.com 1.10,2013-10-02 10:23:00,
2013-10-02 04:38:00,46.3,25.0,30.30,SSE,168,0.0,3.0,44,0.00,,,0.00,weatherlink.com 1.10,2013-10-02 10:38:00,
2013-10-02 04:54:00,46.4,25.0,30.30,SSE,168,0.0,3.0,43,0.00,,,0.00,weatherlink.com 1.10,2013-10-02 10:54:00,
2013-10-02 05:09:00,46.1,25.0,30.30,SSE,168,0.0,3.0,44,0.00,,,0.00,weatherlink.com 1.10,2013-10-02 11:09:00,
2013-10-02 05:24:00,46.1,25.0,30.30,SSE,168,0.0,5.0,44,0.00,,,0.00,weatherlink.com 1.10,2013-10-02 11:24:00,
2013-10-02 05:39:00,45.6,25.0,30.31,SSE,168,0.0,1.0,45,0.00,,,0.00,weatherlink.com 1.10,2013-10-02 11:39:00,
2013-10-02 05:54:00,44.5,24.0,30.31,SSE,168,0.0,1.0,45,0.00,,,0.00,weatherlink.com 1.10,2013-10-02 11:54:00,
2013-10-02 06:09:00,43.8,25.0,30.31,SSE,168,0.0,1.0,47,0.00,,,0.00,weatherlink.com 1.10,2013-10-02 12:09:00,
2013-10-02 06:24:00,41.5,24.0,30.32,SSE,168,0.0,1.0,51,0.00,,,0.00,weatherlink.com 1.10,2013-10-02 12:24:00,
2013-10-02 06:39:00,40.2,25.0,30.32,SSE,168,0.0,0.0,54,0.00,,,0.00,weatherlink.com 1.10,2013-10-02 12:39:00,
2013-10-02 06:54:00,40.3,25.0,30.33,SSE,168,0.0,1.0,55,0.00,,,0.00,weatherlink.com 1.10,2013-10-02 12:54:00,
2013-10-02 07:09:00,40.2,25.0,30.33,SSE,168,0.0,1.0,55,0.00,,,0.00,weatherlink.com 1.10,2013-10-02 13:09:00,
2013-10-02 07:24:00,40.0,24.0,30.33,SSE,168,0.0,2.0,54,0.00,,,0.00,weatherlink.com 1.10,2013-10-02 13:24:00,
2013-10-02 07:39:00,40.7,25.0,30.33,SSE,168,1.0,2.0,55,0.00,,,0.00,weatherlink.com 1.10,2013-10-02 13:39:00,
2013-10-02 07:54:00,41.2,25.0,30.34,SSE,168,0.0,0.0,53,0.00,,,0.00,weatherlink.com 1.10,2013-10-02 13:54:00,
2013-10-02 08:09:00,43.6,27.0,30.35,SSE,168,0.0,0.0,53,0.00,,,0.00,weatherlink.com 1.10,2013-10-02 14:09:00,
2013-10-02 08:24:00,47.6,28.0,30.35,SSE,168,4.0,4.0,46,0.00,,,0.00,weatherlink.com 1.10,2013-10-02 14:24:00,
2013-10-02 08:39:00,49.6,28.0,30.36,SSE,168,0.0,1.0,43,0.00,,,0.00,weatherlink.com 1.10,2013-10-02 14:39:00,
2013-10-02 08:54:00,51.5,27.0,30.36,SSE,168,0.0,1.0,39,0.00,,,0.00,weatherlink.com 1.10,2013-10-02 14:54:00,
2013-10-02 09:09:00,52.6,29.0,30.36,SSE,168,0.0,3.0,41,0.00,,,0.00,weatherlink.com 1.10,2013-10-02 15:09:00,
2013-10-02 09:24:00,54.1,31.0,30.36,SSE,168,0.0,3.0,41,0.00,,,0.00,weatherlink.com 1.10,2013-10-02 15:24:00,
2013-10-02 09:39:00,55.3,29.0,30.37,SSE,168,0.0,3.0,37,0.00,,,0.00,weatherlink.com 1.10,2013-10-02 15:39:00,
2013-10-02 09:54:00,56.5,33.0,30.36,SSE,168,0.0,3.0,41,0.00,,,0.00,weatherlink.com 1.10,2013-10-02 15:54:00,
2013-10-02 10:09:00,58.2,32.0,30.36,SSE,168,0.0,3.0,37,0.00,,,0.00,weatherlink.com 1.10,2013-10-02 16:09:00,
2013-10-02 10:24:00,60.0,33.0,30.36,SSE,168,0.0,5.0,36,0.00,,,0.00,weatherlink.com 1.10,2013-10-02 16:24:00,
2013-10-02 10:39:00,61.6,32.0,30.36,SSE,168,0.0,5.0,33,0.00,,,0.00,weatherlink.com 1.10,2013-10-02 16:39:00,
2013-10-02 10:54:00,62.5,30.0,30.35,SSE,168,0.0,5.0,29,0.00,,,0.00,weatherlink.com 1.10,2013-10-02 16:54:00,
2013-10-02 11:09:00,63.1,29.0,30.35,South,169,0.0,6.0,28,0.00,,,0.00,weatherlink.com 1.10,2013-10-02 17:09:00,
2013-10-02 11:24:00,64.6,30.0,30.33,South,169,0.0,7.0,27,0.00,,,0.00,weatherlink.com 1.10,2013-10-02 17:24:00,
2013-10-02 11:39:00,65.6,28.0,30.32,South,171,0.0,6.0,24,0.00,,,0.00,weatherlink.com 1.10,2013-10-02 17:39:00,
2013-10-02 11:54:00,66.3,27.0,30.32,South,182,0.0,7.0,23,0.00,,,0.00,weatherlink.com 1.10,2013-10-02 17:54:00,
2013-10-02 12:09:00,67.5,26.0,30.31,South,183,2.0,4.0,21,0.00,,,0.00,weatherlink.com 1.10,2013-10-02 18:09:00,
2013-10-02 12:24:00,68.4,26.0,30.30,South,191,0.0,7.0,20,0.00,,,0.00,weatherlink.com 1.10,2013-10-02 18:24:00,
2013-10-02 12:39:00,69.3,26.0,30.30,NW,321,3.0,9.0,20,0.00,,,0.00,weatherlink.com 1.10,2013-10-02 18:39:00,
2013-10-02 12:54:00,68.8,27.0,30.29,NNW,330,4.0,6.0,21,0.00,,,0.00,weatherlink.com 1.10,2013-10-02 18:54:00,
2013-10-02 13:10:00,69.5,28.0,30.29,NW,319,0.0,10.0,21,0.00,,,0.00,weatherlink.com 1.10,2013-10-02 19:10:00,
2013-10-02 13:25:00,70.3,27.0,30.29,NW,313,0.0,6.0,20,0.00,,,0.00,weatherlink.com 1.10,2013-10-02 19:25:00,
2013-10-02 13:40:00,70.4,26.0,30.27,West,272,4.0,12.0,19,0.00,,,0.00,weatherlink.com 1.10,2013-10-02 19:40:00,
2013-10-02 13:55:00,71.0,27.0,30.26,West,277,6.0,13.0,19,0.00,,,0.00,weatherlink.com 1.10,2013-10-02 19:55:00,
2013-10-02 14:10:00,71.2,27.0,30.25,West,272,8.0,8.0,19,0.00,,,0.00,weatherlink.com 1.10,2013-10-02 20:10:00,
2013-10-02 14:25:00,70.9,27.0,30.25,WNW,296,8.0,10.0,19,0.00,,,0.00,weatherlink.com 1.10,2013-10-02 20:25:00,
2013-10-02 14:41:00,71.8,26.0,30.24,West,264,10.0,16.0,18,0.00,,,0.00,weatherlink.com 1.10,2013-10-02 20:41:00,
2013-10-02 14:55:00,72.0,25.0,30.23,West,265,8.0,13.0,17,0.00,,,0.00,weatherlink.com 1.10,2013-10-02 20:55:00,
2013-10-02 15:10:00,72.4,24.0,30.23,SW,230,5.0,15.0,16,0.00,,,0.00,weatherlink.com 1.10,2013-10-02 21:10:00,
2013-10-02 15:25:00,72.4,25.0,30.23,West,262,4.0,12.0,17,0.00,,,0.00,weatherlink.com 1.10,2013-10-02 21:25:00,
2013-10-02 15:40:00,72.4,26.0,30.23,West,265,8.0,12.0,18,0.00,,,0.00,weatherlink.com 1.10,2013-10-02 21:40:00,
2013-10-02 15:56:00,72.4,28.0,30.23,WSW,240,6.0,15.0,19,0.00,,,0.00,weatherlink.com 1.10,2013-10-02 21:56:00,
2013-10-02 16:11:00,72.3,28.0,30.23,WSW,251,4.0,12.0,19,0.00,,,0.00,weatherlink.com 1.10,2013-10-02 22:11:00,
2013-10-02 16:26:00,72.5,28.0,30.23,West,266,9.0,11.0,19,0.00,,,0.00,weatherlink.com 1.10,2013-10-02 22:26:00,
2013-10-02 16:41:00,71.9,27.0,30.23,West,275,0.0,13.0,19,0.00,,,0.00,weatherlink.com 1.10,2013-10-02 22:41:00,
2013-10-02 16:56:00,72.2,28.0,30.23,West,265,4.0,14.0,19,0.00,,,0.00,weatherlink.com 1.10,2013-10-02 22:56:00,
2013-10-02 17:11:00,71.5,28.0,30.23,West,261,8.0,12.0,20,0.00,,,0.00,weatherlink.com 1.10,2013-10-02 23:11:00,
2013-10-02 17:26:00,70.8,28.0,30.23,WSW,256,8.0,12.0,20,0.00,,,0.00,weatherlink.com 1.10,2013-10-02 23:26:00,
2013-10-02 17:41:00,70.2,26.0,30.23,WSW,243,8.0,12.0,19,0.00,,,0.00,weatherlink.com 1.10,2013-10-02 23:41:00,
2013-10-02 17:56:00,69.8,29.0,30.23,SW,230,4.0,9.0,22,0.00,,,0.00,weatherlink.com 1.10,2013-10-02 23:56:00,
2013-10-02 18:11:00,68.6,27.0,30.23,WSW,240,4.0,12.0,21,0.00,,,0.00,weatherlink.com 1.10,2013-10-03 00:11:00,
2013-10-02 18:26:00,67.2,28.0,30.23,WSW,240,2.0,7.0,23,0.00,,,0.00,weatherlink.com 1.10,2013-10-03 00:26:00,
2013-10-02 18:41:00,65.0,29.0,30.23,WSW,240,0.0,1.0,26,0.00,,,0.00,weatherlink.com 1.10,2013-10-03 00:41:00,
2013-10-02 18:56:00,61.6,28.0,30.23,WSW,240,0.0,1.0,28,0.00,,,0.00,weatherlink.com 1.10,2013-10-03 00:56:00,
2013-10-02 19:11:00,59.6,25.0,30.24,WSW,240,0.0,5.0,27,0.00,,,0.00,weatherlink.com 1.10,2013-10-03 01:11:00,
2013-10-02 19:26:00,59.8,26.0,30.25,SW,236,1.0,8.0,27,0.00,,,0.00,weatherlink.com 1.10,2013-10-03 01:26:00,
2013-10-02 19:41:00,59.3,25.0,30.25,SW,234,2.0,6.0,27,0.00,,,0.00,weatherlink.com 1.10,2013-10-03 01:41:00,
2013-10-02 19:56:00,59.8,25.0,30.26,SW,227,3.0,7.0,26,0.00,,,0.00,weatherlink.com 1.10,2013-10-03 01:56:00,
2013-10-02 20:11:00,60.0,24.0,30.26,SW,216,3.0,6.0,25,0.00,,,0.00,weatherlink.com 1.10,2013-10-03 02:11:00,
2013-10-02 20:26:00,58.6,27.0,30.27,SW,214,0.0,2.0,30,0.00,,,0.00,weatherlink.com 1.10,2013-10-03 02:26:00,
2013-10-02 20:41:00,56.0,23.0,30.28,SW,214,3.0,5.0,28,0.00,,,0.00,weatherlink.com 1.10,2013-10-03 02:41:00,
2013-10-02 20:57:00,58.6,24.0,30.28,SSW,200,5.0,8.0,26,0.00,,,0.00,weatherlink.com 1.10,2013-10-03 02:57:00,
2013-10-02 21:11:00,59.0,23.0,30.29,South,190,6.0,9.0,25,0.00,,,0.00,weatherlink.com 1.10,2013-10-03 03:11:00,
2013-10-02 21:26:00,57.9,23.0,30.29,South,190,3.0,6.0,26,0.00,,,0.00,weatherlink.com 1.10,2013-10-03 03:26:00,
2013-10-02 21:42:00,57.8,22.0,30.29,South,190,3.0,6.0,25,0.00,,,0.00,weatherlink.com 1.10,2013-10-03 03:42:00,
2013-10-02 21:56:00,56.7,21.0,30.28,South,190,0.0,4.0,25,0.00,,,0.00,weatherlink.com 1.10,2013-10-03 03:56:00,
2013-10-02 22:11:00,55.3,22.0,30.28,South,190,0.0,0.0,27,0.00,,,0.00,weatherlink.com 1.10,2013-10-03 04:11:00,
2013-10-02 22:26:00,52.0,21.0,30.28,South,190,0.0,3.0,30,0.00,,,0.00,weatherlink.com 1.10,2013-10-03 04:26:00,
2013-10-02 22:41:00,50.2,20.0,30.29,South,190,1.0,3.0,31,0.00,,,0.00,weatherlink.com 1.10,2013-10-03 04:41:00,
2013-10-02 22:56:00,49.5,21.0,30.28,South,190,2.0,2.0,32,0.00,,,0.00,weatherlink.com 1.10,2013-10-03 04:56:00,
2013-10-02 23:11:00,49.2,20.0,30.29,South,190,0.0,1.0,32,0.00,,,0.00,weatherlink.com 1.10,2013-10-03 05:11:00,
2013-10-02 23:26:00,49.2,20.0,30.29,South,190,1.0,4.0,32,0.00,,,0.00,weatherlink.com 1.10,2013-10-03 05:26:00,
2013-10-02 23:41:00,49.4,20.0,30.29,South,190,1.0,4.0,32,0.00,,,0.00,weatherlink.com 1.10,2013-10-03 05:41:00,
2013-10-02 23:56:00,49.2,20.0,30.28,South,189,0.0,4.0,32,0.00,,,0.00,weatherlink.com 1.10,2013-10-03 05:56:00,